Time;durP1;ratioP1;P1;durP2;ratioP2;P2;SDS_P1;SDS_P2;PMS_P1;PMS_P2;Temp;Humidity;BMP_temperature;BMP_pressure;BME280_temperature;BME280_humidity;BME280_pressure;Samples;Min_cycle;Max_cycle;Signal;HPM_P1;HPM_P2
2023/06/09 00:00:55;;;;;;;7.80;6.18;;;16.50;95.30;;;;;;5024738;28;20032;-73
2023/06/09 00:03:21;;;;;;;11.07;5.88;;;16.50;95.50;;;;;;5021819;28;20107;-73
2023/06/09 00:05:50;;;;;;;9.57;6.05;;;16.50;95.70;;;;;;5024787;28;20021;-73
2023/06/09 00:08:15;;;;;;;7.82;6.07;;;16.50;95.60;;;;;;5024418;28;20026;-73
2023/06/09 00:10:42;;;;;;;8.68;6.25;;;16.50;95.20;;;;;;5024009;28;20022;-73
2023/06/09 00:13:07;;;;;;;7.88;6.22;;;16.50;95.30;;;;;;5027327;28;21297;-73
2023/06/09 00:15:33;;;;;;;9.18;5.80;;;16.40;95.40;;;;;;5027916;28;20037;-73
2023/06/09 00:18:02;;;;;;;7.90;5.60;;;16.40;95.50;;;;;;5024658;28;20022;-73
2023/06/09 00:20:33;;;;;;;8.02;6.40;;;16.30;95.60;;;;;;5025964;28;20079;-73
2023/06/09 00:22:59;;;;;;;10.30;6.38;;;16.30;95.70;;;;;;5026337;28;20120;-73
2023/06/09 00:25:25;;;;;;;8.63;6.22;;;16.30;96.00;;;;;;5029065;28;20041;-72
2023/06/09 00:27:50;;;;;;;7.25;5.82;;;16.30;95.90;;;;;;5025836;28;20079;-72
2023/06/09 00:30:20;;;;;;;11.35;6.93;;;16.30;96.00;;;;;;5027477;28;20044;-73
2023/06/09 00:32:46;;;;;;;10.18;5.82;;;16.30;95.70;;;;;;5030241;28;20488;-72
2023/06/09 00:35:12;;;;;;;8.38;5.82;;;16.30;95.60;;;;;;5025850;28;20083;-73
2023/06/09 00:37:38;;;;;;;11.15;6.20;;;16.20;96.00;;;;;;5028209;28;20140;-72
2023/06/09 00:40:05;;;;;;;6.55;5.10;;;16.20;96.10;;;;;;5032147;28;20033;-72
2023/06/09 00:42:31;;;;;;;7.70;5.97;;;16.20;95.90;;;;;;5027646;28;20392;-73
2023/06/09 00:44:56;;;;;;;7.65;6.22;;;16.20;95.90;;;;;;5027755;28;20101;-73
2023/06/09 00:47:22;;;;;;;8.70;5.90;;;16.20;95.90;;;;;;5030449;28;20088;-73
2023/06/09 00:49:48;;;;;;;8.82;6.53;;;16.10;95.70;;;;;;5032463;28;20108;-73
2023/06/09 00:52:15;;;;;;;9.82;6.22;;;16.10;96.00;;;;;;5028512;28;20025;-74
2023/06/09 00:54:41;;;;;;;9.25;6.10;;;16.00;95.90;;;;;;5029062;28;20026;-73
2023/06/09 00:57:08;;;;;;;6.97;6.00;;;16.00;95.80;;;;;;5030956;28;20119;-73
2023/06/09 00:59:34;;;;;;;9.00;6.40;;;16.00;96.10;;;;;;5031302;28;20396;-73
2023/06/09 01:02:00;;;;;;;10.82;6.10;;;16.00;96.30;;;;;;5029623;28;20390;-73
2023/06/09 01:04:26;;;;;;;8.07;6.28;;;16.00;96.30;;;;;;5030355;28;20052;-72
2023/06/09 01:07:16;;;;;;;7.45;5.90;;;16.00;96.40;;;;;;5032564;28;20032;-73
2023/06/09 01:09:59;;;;;;;7.22;6.22;;;16.00;96.40;;;;;;5027902;28;20014;-72
2023/06/09 01:12:42;;;;;;;8.27;6.18;;;16.00;96.60;;;;;;5028540;28;20049;-72
2023/06/09 01:15:24;;;;;;;9.70;6.18;;;15.90;96.60;;;;;;5025732;28;20469;-72
2023/06/09 01:17:58;;;;;;;9.25;6.47;;;15.90;96.70;;;;;;5028513;28;20043;-72
2023/06/09 01:20:49;;;;;;;12.70;6.72;;;15.90;97.10;;;;;;5026016;28;20040;-72
2023/06/09 01:23:32;;;;;;;8.15;6.40;;;15.80;96.90;;;;;;5027983;28;20357;-72
2023/06/09 01:25:59;;;;;;;11.70;6.35;;;15.90;96.60;;;;;;5029042;28;20037;-72
2023/06/09 01:28:26;;;;;;;9.98;6.25;;;15.90;96.70;;;;;;5025984;28;20036;-72
2023/06/09 01:30:54;;;;;;;10.75;7.35;;;15.80;96.70;;;;;;5028823;28;20493;-72
2023/06/09 01:33:22;;;;;;;8.05;6.45;;;15.70;97.00;;;;;;5026706;28;20021;-73
2023/06/09 01:35:48;;;;;;;9.23;6.15;;;15.70;97.30;;;;;;5038595;28;20496;-73
2023/06/09 01:38:15;;;;;;;9.65;6.45;;;15.60;97.40;;;;;;5026411;28;20083;-74
2023/06/09 01:40:43;;;;;;;8.45;6.43;;;15.60;97.50;;;;;;5024747;28;20117;-73
2023/06/09 01:43:09;;;;;;;9.82;6.55;;;15.60;97.40;;;;;;5027464;28;20491;-73
2023/06/09 01:45:34;;;;;;;7.78;6.18;;;15.50;97.70;;;;;;5042423;28;20035;-74
2023/06/09 01:48:10;;;;;;;11.82;7.13;;;15.50;97.60;;;;;;5026817;28;20033;-73
2023/06/09 01:50:59;;;;;;;8.02;6.80;;;15.60;97.80;;;;;;5027686;28;20077;-73
2023/06/09 01:53:37;;;;;;;8.10;6.65;;;15.50;97.80;;;;;;5026718;28;20033;-73
2023/06/09 01:56:19;;;;;;;9.43;6.97;;;15.50;97.60;;;;;;5026091;28;20030;-73
2023/06/09 01:58:47;;;;;;;7.57;5.82;;;15.50;98.00;;;;;;5024828;28;20067;-73
2023/06/09 02:01:16;;;;;;;8.50;6.75;;;15.50;97.80;;;;;;5025730;28;20100;-73
2023/06/09 02:03:44;;;;;;;12.55;6.38;;;15.40;97.80;;;;;;5024183;28;20464;-73
2023/06/09 02:06:11;;;;;;;8.40;6.88;;;15.30;98.30;;;;;;5020604;28;20931;-73
2023/06/09 02:08:38;;;;;;;9.73;6.72;;;15.30;98.60;;;;;;5014392;28;20081;-73
2023/06/09 02:11:04;;;;;;;9.05;7.10;;;15.30;98.80;;;;;;5024271;28;20035;-73
2023/06/09 02:13:30;;;;;;;10.10;7.43;;;15.20;99.00;;;;;;5029131;28;20100;-73
2023/06/09 02:15:56;;;;;;;10.07;7.15;;;15.20;99.00;;;;;;5028425;28;20080;-73
2023/06/09 02:18:22;;;;;;;8.48;6.82;;;15.20;99.20;;;;;;5028918;28;20833;-73
2023/06/09 02:20:51;;;;;;;8.73;7.05;;;15.20;99.20;;;;;;5027964;28;20510;-73
2023/06/09 02:23:21;;;;;;;9.82;6.93;;;15.20;99.10;;;;;;5028019;28;20069;-73
2023/06/09 02:25:48;;;;;;;10.82;7.88;;;15.20;99.30;;;;;;5029286;28;20083;-73
2023/06/09 02:28:16;;;;;;;10.05;7.35;;;15.20;99.70;;;;;;5027819;28;20026;-73
2023/06/09 02:30:43;;;;;;;13.65;8.23;;;15.10;99.60;;;;;;5025520;28;20108;-72
2023/06/09 02:33:08;;;;;;;9.82;7.93;;;15.10;99.90;;;;;;5029520;28;20459;-73
2023/06/09 02:35:34;;;;;;;11.60;8.65;;;15.10;99.90;;;;;;5025119;28;20033;-73
2023/06/09 02:38:05;;;;;;;11.05;8.20;;;15.00;99.90;;;;;;5027499;28;20722;-73
2023/06/09 02:40:32;;;;;;;12.38;8.65;;;15.00;99.90;;;;;;5023722;28;20030;-72
2023/06/09 02:42:58;;;;;;;11.73;8.90;;;15.00;99.80;;;;;;5028136;28;20029;-73
2023/06/09 02:45:24;;;;;;;11.70;9.25;;;14.90;99.90;;;;;;5026760;28;20091;-72
2023/06/09 02:47:50;;;;;;;13.05;8.32;;;14.90;99.90;;;;;;5028921;28;20021;-72
2023/06/09 02:50:16;;;;;;;9.82;7.95;;;14.80;99.90;;;;;;5028197;28;20057;-72
2023/06/09 02:52:42;;;;;;;12.52;8.90;;;14.90;99.90;;;;;;5025408;28;20112;-73
2023/06/09 02:55:08;;;;;;;11.85;8.45;;;14.80;99.90;;;;;;5027392;28;20429;-73
2023/06/09 02:57:34;;;;;;;10.10;8.18;;;14.70;99.90;;;;;;5028461;28;20030;-73
2023/06/09 03:00:00;;;;;;;13.88;8.57;;;14.70;99.90;;;;;;5023319;28;20030;-73
2023/06/09 03:02:27;;;;;;;13.25;8.50;;;14.70;99.90;;;;;;5027038;28;20110;-73
2023/06/09 03:04:53;;;;;;;12.32;8.55;;;14.60;99.90;;;;;;5027938;28;20021;-72
2023/06/09 03:07:18;;;;;;;13.43;8.65;;;14.60;99.90;;;;;;5026012;28;20060;-73
2023/06/09 03:09:44;;;;;;;11.25;8.63;;;14.50;99.90;;;;;;5023426;28;20017;-73
2023/06/09 03:12:10;;;;;;;13.02;8.10;;;14.50;99.90;;;;;;5040946;28;20021;-73
2023/06/09 03:14:36;;;;;;;8.98;7.15;;;14.50;99.90;;;;;;5028128;28;20077;-73
2023/06/09 03:17:04;;;;;;;8.45;6.88;;;14.50;99.90;;;;;;5026568;28;20029;-73
2023/06/09 03:19:30;;;;;;;10.63;6.93;;;14.50;99.90;;;;;;5027499;28;20022;-73
2023/06/09 03:21:57;;;;;;;9.60;6.95;;;14.60;99.90;;;;;;5028724;28;20040;-72
2023/06/09 03:24:23;;;;;;;8.80;7.18;;;14.50;99.90;;;;;;5027295;28;20048;-73
2023/06/09 03:26:49;;;;;;;12.52;6.95;;;14.60;99.90;;;;;;5028042;28;21114;-73
2023/06/09 03:29:15;;;;;;;10.38;6.82;;;14.50;99.90;;;;;;5025633;28;20018;-73
2023/06/09 03:31:41;;;;;;;10.15;7.10;;;14.60;99.90;;;;;;5023722;28;20038;-73
2023/06/09 03:34:07;;;;;;;10.95;7.15;;;14.50;99.90;;;;;;5026163;28;20032;-73
2023/06/09 03:36:35;;;;;;;8.65;7.05;;;14.50;99.90;;;;;;5026954;28;20108;-71
2023/06/09 03:39:04;;;;;;;9.52;7.35;;;14.50;99.90;;;;;;5023752;28;20017;-72
2023/06/09 03:41:30;;;;;;;10.10;6.63;;;14.50;99.90;;;;;;5027001;28;20499;-72
2023/06/09 03:43:55;;;;;;;11.40;7.95;;;14.50;99.90;;;;;;5024810;28;20056;-72
2023/06/09 03:46:21;;;;;;;10.45;8.00;;;14.50;99.90;;;;;;5027110;28;20040;-72
2023/06/09 03:48:48;;;;;;;9.57;7.22;;;14.50;99.90;;;;;;5027037;28;20071;-72
2023/06/09 03:51:14;;;;;;;9.68;6.78;;;14.50;99.90;;;;;;5024102;28;20029;-72
2023/06/09 03:53:39;;;;;;;9.90;6.53;;;14.50;99.90;;;;;;5024316;28;20083;-72
2023/06/09 03:56:07;;;;;;;9.70;6.60;;;14.50;99.90;;;;;;5029155;28;20021;-71
2023/06/09 03:58:33;;;;;;;8.90;6.50;;;14.50;99.90;;;;;;5030587;28;20025;-71
2023/06/09 04:00:59;;;;;;;9.38;7.07;;;14.50;99.90;;;;;;5028695;28;20086;-71
2023/06/09 04:03:24;;;;;;;9.43;7.20;;;14.50;99.90;;;;;;5026839;28;20033;-72
2023/06/09 04:05:50;;;;;;;11.30;8.35;;;14.50;99.90;;;;;;5028055;28;20030;-71
2023/06/09 04:08:16;;;;;;;9.70;7.20;;;14.50;99.90;;;;;;5030404;28;20038;-71
2023/06/09 04:10:42;;;;;;;12.13;7.88;;;14.50;99.90;;;;;;5032406;28;20021;-71
2023/06/09 04:13:09;;;;;;;10.43;7.13;;;14.50;99.90;;;;;;5026236;28;20025;-72
2023/06/09 04:15:35;;;;;;;10.18;7.95;;;14.70;99.90;;;;;;5027834;28;20033;-72
2023/06/09 04:18:01;;;;;;;12.65;8.98;;;14.80;99.90;;;;;;5028564;28;20048;-72
2023/06/09 04:20:26;;;;;;;12.13;8.98;;;14.80;99.90;;;;;;5025939;28;20131;-72
2023/06/09 04:22:53;;;;;;;11.25;8.95;;;14.80;99.90;;;;;;5029851;28;20171;-73
2023/06/09 04:25:25;;;;;;;12.70;9.73;;;14.80;99.90;;;;;;5027008;28;20010;-72
2023/06/09 04:28:00;;;;;;;11.50;9.45;;;14.70;99.90;;;;;;5030659;28;20025;-73
2023/06/09 04:30:25;;;;;;;11.43;8.27;;;14.60;99.90;;;;;;5027153;28;20022;-72
2023/06/09 04:32:52;;;;;;;16.50;8.48;;;14.70;99.90;;;;;;5029381;28;20048;-73
2023/06/09 04:35:22;;;;;;;11.35;8.70;;;14.70;99.90;;;;;;5028740;28;20056;-72
2023/06/09 04:37:49;;;;;;;13.65;8.93;;;14.80;99.90;;;;;;5028420;28;20419;-72
2023/06/09 04:40:21;;;;;;;13.50;9.05;;;14.80;99.90;;;;;;5029759;28;20025;-72
2023/06/09 04:42:56;;;;;;;12.60;8.13;;;14.90;99.90;;;;;;5025589;28;20079;-72
2023/06/09 04:45:27;;;;;;;13.00;9.48;;;15.00;99.90;;;;;;5027525;28;20404;-72
2023/06/09 04:47:59;;;;;;;13.23;9.55;;;15.00;99.90;;;;;;5026381;28;20029;-72
2023/06/09 04:50:37;;;;;;;10.60;8.90;;;15.00;99.90;;;;;;5026302;28;20033;-72
2023/06/09 04:53:07;;;;;;;13.85;9.77;;;15.10;99.90;;;;;;5026294;28;20078;-71
2023/06/09 04:55:35;;;;;;;13.38;9.60;;;15.20;99.90;;;;;;5027299;28;20013;-71
2023/06/09 04:58:01;;;;;;;16.27;9.63;;;15.30;99.90;;;;;;5021377;28;20028;-71
2023/06/09 05:00:28;;;;;;;13.00;9.88;;;15.40;99.90;;;;;;5026775;28;20029;-70
2023/06/09 05:02:56;;;;;;;13.77;10.20;;;15.50;99.90;;;;;;5026697;28;20026;-71
2023/06/09 05:05:22;;;;;;;13.45;9.05;;;15.60;99.90;;;;;;5033097;28;20764;-71
2023/06/09 05:07:48;;;;;;;11.00;9.10;;;15.70;99.90;;;;;;5023134;28;20108;-71
2023/06/09 05:10:14;;;;;;;12.98;9.65;;;15.80;99.90;;;;;;5026681;28;20022;-70
2023/06/09 05:12:40;;;;;;;13.88;8.93;;;16.00;99.90;;;;;;5044466;28;20018;-70
2023/06/09 05:15:07;;;;;;;12.65;9.43;;;16.10;99.90;;;;;;5025031;28;20036;-73
2023/06/09 05:17:41;;;;;;;13.85;8.65;;;16.20;99.30;;;;;;5028204;28;20072;-73
2023/06/09 05:20:08;;;;;;;13.55;9.15;;;16.30;99.30;;;;;;5025871;28;21429;-72
2023/06/09 05:22:35;;;;;;;11.63;9.07;;;16.40;99.00;;;;;;5030958;28;20551;-72
2023/06/09 05:25:01;;;;;;;13.20;8.70;;;16.50;98.70;;;;;;5024974;28;20095;-71
2023/06/09 05:27:27;;;;;;;10.57;8.35;;;16.60;98.60;;;;;;5041171;28;20026;-71
2023/06/09 05:29:53;;;;;;;10.52;8.15;;;16.70;98.40;;;;;;5027625;28;20021;-73
2023/06/09 05:32:19;;;;;;;11.98;8.48;;;16.80;98.30;;;;;;5028019;28;20051;-71
2023/06/09 05:34:44;;;;;;;13.07;8.43;;;16.90;98.00;;;;;;5028647;28;20029;-71
2023/06/09 05:37:13;;;;;;;11.40;7.90;;;17.00;97.80;;;;;;5025886;28;20515;-72
2023/06/09 05:39:39;;;;;;;12.43;8.60;;;17.10;97.70;;;;;;5025382;28;20033;-72
2023/06/09 05:42:07;;;;;;;10.90;8.68;;;17.10;97.40;;;;;;5027014;28;20033;-72
2023/06/09 05:44:33;;;;;;;12.45;8.75;;;17.10;97.10;;;;;;5041973;28;20033;-73
2023/06/09 05:46:58;;;;;;;12.20;8.90;;;17.20;96.90;;;;;;5027096;28;20028;-74
2023/06/09 05:49:24;;;;;;;13.68;8.98;;;17.20;97.00;;;;;;5028597;28;20034;-73
2023/06/09 05:51:50;;;;;;;12.93;9.75;;;17.20;97.00;;;;;;5027591;28;20025;-71
2023/06/09 05:54:16;;;;;;;14.68;10.48;;;17.30;96.90;;;;;;5020955;28;20137;-72
2023/06/09 05:56:44;;;;;;;13.88;10.02;;;17.30;96.70;;;;;;5043873;28;20029;-72
2023/06/09 05:59:13;;;;;;;11.20;9.82;;;17.40;96.50;;;;;;5022549;28;20021;-73
2023/06/09 06:01:39;;;;;;;15.45;10.40;;;17.40;96.50;;;;;;5023328;28;20326;-73
2023/06/09 06:04:05;;;;;;;13.52;9.63;;;17.40;95.90;;;;;;5025041;28;20060;-73
2023/06/09 06:06:31;;;;;;;13.95;9.90;;;17.40;96.10;;;;;;5027988;28;20108;-73
2023/06/09 06:08:57;;;;;;;27.73;10.50;;;17.50;96.30;;;;;;5021938;28;21149;-72
2023/06/09 06:11:23;;;;;;;14.25;9.50;;;17.60;96.20;;;;;;5027532;28;20032;-73
2023/06/09 06:13:48;;;;;;;13.15;8.65;;;17.50;96.10;;;;;;5025403;28;20029;-73
2023/06/09 06:16:14;;;;;;;17.40;9.55;;;17.70;96.10;;;;;;5026856;28;20087;-73
2023/06/09 06:18:40;;;;;;;15.98;9.10;;;17.70;96.00;;;;;;5026914;28;20029;-74
2023/06/09 06:21:06;;;;;;;12.95;9.05;;;17.80;96.00;;;;;;5028331;28;20105;-74
2023/06/09 06:23:32;;;;;;;13.43;9.05;;;17.90;96.00;;;;;;5022109;28;20033;-72
2023/06/09 06:25:58;;;;;;;12.68;8.93;;;18.00;96.00;;;;;;5022871;28;20099;-73
2023/06/09 06:28:23;;;;;;;14.70;8.88;;;18.10;95.80;;;;;;5029606;28;20025;-72
2023/06/09 06:30:52;;;;;;;11.30;8.32;;;18.30;95.60;;;;;;5028868;28;20034;-72
2023/06/09 06:33:17;;;;;;;10.15;8.35;;;18.40;95.40;;;;;;5026207;28;20084;-72
2023/06/09 06:35:43;;;;;;;13.40;7.80;;;18.50;95.00;;;;;;5028242;28;20037;-72
2023/06/09 06:38:09;;;;;;;9.93;8.23;;;18.50;94.80;;;;;;5026699;28;20116;-72
2023/06/09 06:40:34;;;;;;;13.10;8.48;;;18.60;94.60;;;;;;5029247;28;20544;-72
2023/06/09 06:43:00;;;;;;;10.80;8.18;;;18.60;94.40;;;;;;5021026;28;20025;-72
2023/06/09 06:45:28;;;;;;;11.73;8.50;;;18.60;94.50;;;;;;5022894;28;20477;-72
2023/06/09 06:47:55;;;;;;;10.77;7.75;;;18.60;94.60;;;;;;5025714;28;20033;-72
2023/06/09 06:50:21;;;;;;;13.82;7.90;;;18.60;94.70;;;;;;5025273;28;20167;-72
2023/06/09 06:52:49;;;;;;;9.23;7.47;;;18.70;94.70;;;;;;5023853;28;20021;-72
2023/06/09 06:55:15;;;;;;;9.18;7.07;;;18.70;94.50;;;;;;5028378;28;20041;-72
2023/06/09 06:57:41;;;;;;;12.68;8.20;;;18.80;94.90;;;;;;5023346;28;20034;-72
2023/06/09 07:00:16;;;;;;;11.85;7.85;;;18.90;94.60;;;;;;5026143;28;20048;-72
2023/06/09 07:02:50;;;;;;;14.90;8.00;;;18.90;94.60;;;;;;5025013;28;20112;-72
2023/06/09 07:05:17;;;;;;;9.18;6.75;;;19.00;94.30;;;;;;5023931;28;20061;-72
2023/06/09 07:07:46;;;;;;;12.45;8.35;;;19.10;94.40;;;;;;5040569;28;20396;-72
2023/06/09 07:10:13;;;;;;;14.27;8.20;;;19.10;94.20;;;;;;5023152;28;20018;-72
2023/06/09 07:12:39;;;;;;;14.88;7.10;;;19.20;94.20;;;;;;5023765;28;20041;-72
2023/06/09 07:15:06;;;;;;;13.73;7.30;;;19.20;94.10;;;;;;5027225;28;20029;-72
2023/06/09 07:17:31;;;;;;;9.38;6.50;;;19.30;94.30;;;;;;5025290;28;20021;-72
2023/06/09 07:19:57;;;;;;;8.63;6.55;;;19.40;94.20;;;;;;5023694;28;20036;-72
2023/06/09 07:22:23;;;;;;;8.77;6.22;;;19.50;94.20;;;;;;5026424;28;20043;-72
2023/06/09 07:24:48;;;;;;;10.93;6.57;;;19.50;93.90;;;;;;5023216;28;20032;-72
2023/06/09 07:27:15;;;;;;;10.20;6.53;;;19.50;93.70;;;;;;5021688;28;20172;-73
2023/06/09 07:29:42;;;;;;;11.25;6.55;;;19.60;93.80;;;;;;5023941;28;20029;-72
2023/06/09 07:32:09;;;;;;;10.07;5.85;;;19.70;93.80;;;;;;5020794;28;20018;-73
2023/06/09 07:34:35;;;;;;;11.52;6.60;;;19.70;93.70;;;;;;5024622;28;20076;-73
2023/06/09 07:37:03;;;;;;;11.05;6.05;;;19.70;93.60;;;;;;5027942;28;20041;-72
2023/06/09 07:39:29;;;;;;;11.88;6.30;;;19.80;93.50;;;;;;5022695;28;20029;-73
2023/06/09 07:41:55;;;;;;;6.82;5.18;;;19.80;93.30;;;;;;5023574;28;20025;-73
2023/06/09 07:44:21;;;;;;;8.65;6.30;;;19.90;93.30;;;;;;5026249;28;20032;-73
2023/06/09 07:46:46;;;;;;;9.10;5.93;;;20.00;93.20;;;;;;5025404;28;20033;-72
2023/06/09 07:49:14;;;;;;;11.40;5.25;;;20.10;92.80;;;;;;5024423;28;20021;-72
2023/06/09 07:51:41;;;;;;;10.35;6.35;;;20.20;92.40;;;;;;5027620;28;20016;-72
2023/06/09 07:54:07;;;;;;;8.93;6.28;;;20.20;92.10;;;;;;5026290;28;20026;-72
2023/06/09 07:56:33;;;;;;;10.20;5.88;;;20.30;91.90;;;;;;5024888;28;20476;-72
2023/06/09 07:58:59;;;;;;;18.73;7.63;;;20.30;92.30;;;;;;5025202;28;20641;-72
2023/06/09 08:01:29;;;;;;;10.73;6.63;;;20.40;92.50;;;;;;5019422;28;20119;-72
2023/06/09 08:03:55;;;;;;;17.73;7.15;;;20.50;92.70;;;;;;5025254;28;20496;-72
2023/06/09 08:06:21;;;;;;;11.88;6.70;;;20.50;93.10;;;;;;5024500;28;20044;-72
2023/06/09 08:08:46;;;;;;;14.23;7.85;;;20.60;93.30;;;;;;5021716;28;20051;-72
2023/06/09 08:11:12;;;;;;;17.88;9.27;;;20.60;93.10;;;;;;5022398;28;20041;-73
2023/06/09 08:13:37;;;;;;;24.13;7.55;;;20.70;93.10;;;;;;5024620;28;20101;-72
2023/06/09 08:16:03;;;;;;;13.45;6.72;;;20.70;92.50;;;;;;5026088;28;20037;-72
2023/06/09 08:18:29;;;;;;;23.40;8.88;;;20.80;92.60;;;;;;5026601;28;20066;-72
2023/06/09 08:20:55;;;;;;;19.67;7.70;;;20.90;92.60;;;;;;5024845;28;20037;-73
2023/06/09 08:23:22;;;;;;;9.32;5.30;;;21.00;92.50;;;;;;5023141;28;20120;-73
2023/06/09 08:25:48;;;;;;;12.27;6.57;;;21.10;91.90;;;;;;5023348;28;20029;-72
2023/06/09 08:28:14;;;;;;;9.93;5.07;;;21.10;91.30;;;;;;5024490;28;20033;-72
2023/06/09 08:30:40;;;;;;;6.57;4.78;;;21.30;91.40;;;;;;5026574;28;20036;-73
2023/06/09 08:33:06;;;;;;;7.65;4.75;;;21.40;91.00;;;;;;5024379;28;20030;-73
2023/06/09 08:35:32;;;;;;;5.35;4.40;;;21.40;90.80;;;;;;5026581;28;20909;-72
2023/06/09 08:38:01;;;;;;;5.72;4.72;;;21.50;90.10;;;;;;5023724;28;20077;-72
2023/06/09 08:40:27;;;;;;;4.47;4.00;;;21.70;90.10;;;;;;5021207;28;20041;-73
2023/06/09 08:42:58;;;;;;;6.93;4.72;;;21.80;90.00;;;;;;5024272;28;20172;-73
2023/06/09 08:45:25;;;;;;;4.82;3.85;;;21.90;89.90;;;;;;5026641;28;20049;-74
2023/06/09 08:47:54;;;;;;;10.15;4.72;;;21.90;89.80;;;;;;5031344;28;20029;-73
2023/06/09 08:50:28;;;;;;;6.90;4.97;;;22.10;89.20;;;;;;5029777;28;20025;-74
2023/06/09 08:52:55;;;;;;;8.38;4.50;;;22.10;88.90;;;;;;5029386;28;20609;-73
2023/06/09 08:55:21;;;;;;;7.05;4.40;;;22.20;88.40;;;;;;5028859;28;20515;-74
2023/06/09 08:57:48;;;;;;;7.22;4.90;;;22.20;88.00;;;;;;5031004;28;20033;-73
2023/06/09 09:00:15;;;;;;;5.35;4.47;;;22.30;88.30;;;;;;5030527;28;20053;-72
2023/06/09 09:02:43;;;;;;;5.07;4.07;;;22.30;87.80;;;;;;5023998;28;20030;-74
2023/06/09 09:05:10;;;;;;;4.85;4.00;;;22.40;87.50;;;;;;5026725;28;20879;-74
2023/06/09 09:07:35;;;;;;;6.45;4.30;;;22.50;87.10;;;;;;5023644;28;20025;-73
2023/06/09 09:10:01;;;;;;;5.07;4.05;;;22.50;86.50;;;;;;5027915;28;20095;-74
2023/06/09 09:12:27;;;;;;;5.25;3.90;;;22.60;86.10;;;;;;5025970;28;20030;-74
2023/06/09 09:14:53;;;;;;;4.35;3.38;;;22.70;85.00;;;;;;5023792;28;20028;-74
2023/06/09 09:17:18;;;;;;;3.42;3.05;;;22.80;83.40;;;;;;5027715;28;20040;-73
2023/06/09 09:19:47;;;;;;;4.75;2.92;;;22.90;81.60;;;;;;5026421;28;20048;-74
2023/06/09 09:22:13;;;;;;;5.25;2.88;;;23.10;80.30;;;;;;5021684;28;20021;-74
2023/06/09 09:24:44;;;;;;;3.83;2.72;;;23.20;79.10;;;;;;5021859;28;20036;-73
2023/06/09 09:27:22;;;;;;;4.53;3.35;;;23.40;78.50;;;;;;5025805;28;20032;-73
2023/06/09 09:29:48;;;;;;;4.25;2.65;;;23.50;77.40;;;;;;5025310;28;20021;-74
2023/06/09 09:32:16;;;;;;;4.13;2.50;;;23.50;76.60;;;;;;5025827;28;20030;-71
2023/06/09 09:34:44;;;;;;;3.33;2.88;;;23.60;76.60;;;;;;5026109;28;20021;-74
2023/06/09 09:37:20;;;;;;;6.38;3.65;;;23.60;76.30;;;;;;5031573;28;20150;-72
2023/06/09 09:39:53;;;;;;;4.63;3.60;;;23.80;77.80;;;;;;5029438;28;20038;-73
2023/06/09 09:42:20;;;;;;;3.92;3.53;;;23.80;79.00;;;;;;5026092;28;20504;-74
2023/06/09 09:44:47;;;;;;;5.93;4.28;;;23.80;79.00;;;;;;5029181;28;20033;-74
2023/06/09 09:47:15;;;;;;;3.83;3.40;;;23.80;78.40;;;;;;5033218;28;20028;-76
2023/06/09 09:50:00;;;;;;;4.20;3.80;;;23.80;78.70;;;;;;5028460;28;20097;-75
2023/06/09 09:52:31;;;;;;;4.60;3.88;;;23.80;78.90;;;;;;5046643;28;20496;-74
2023/06/09 09:54:59;;;;;;;4.93;3.22;;;23.80;78.90;;;;;;5044632;28;20031;-73
2023/06/09 09:57:29;;;;;;;5.18;3.13;;;23.90;77.30;;;;;;5026654;28;20026;-75
2023/06/09 09:59:56;;;;;;;3.67;3.10;;;24.00;75.60;;;;;;5027580;28;20029;-75
2023/06/09 10:02:26;;;;;;;3.45;3.15;;;24.10;75.40;;;;;;5028925;28;20040;-76
2023/06/09 10:04:56;;;;;;;4.13;2.90;;;24.10;74.80;;;;;;5029990;28;20045;-76
2023/06/09 10:07:26;;;;;;;4.22;2.80;;;24.20;74.40;;;;;;5029262;28;20021;-75
2023/06/09 10:09:53;;;;;;;5.07;3.40;;;24.30;73.60;;;;;;5033912;28;20014;-74
2023/06/09 10:12:20;;;;;;;3.13;2.67;;;24.40;74.30;;;;;;5030310;28;20032;-74
2023/06/09 10:14:48;;;;;;;4.97;2.92;;;24.50;73.50;;;;;;5023694;28;20374;-75
2023/06/09 10:17:15;;;;;;;4.03;3.20;;;24.60;73.20;;;;;;5026614;28;20056;-75
2023/06/09 10:19:42;;;;;;;3.20;2.90;;;24.60;72.30;;;;;;5030818;28;20049;-75
2023/06/09 10:22:09;;;;;;;4.82;3.55;;;24.70;72.80;;;;;;5030932;28;20408;-76
2023/06/09 10:24:36;;;;;;;4.90;3.50;;;24.70;73.30;;;;;;5027992;28;20375;-75
2023/06/09 10:27:04;;;;;;;4.90;3.42;;;24.80;73.10;;;;;;5026648;28;20100;-75
2023/06/09 10:29:29;;;;;;;4.35;3.25;;;24.90;72.60;;;;;;5032826;28;20148;-74
2023/06/09 10:31:57;;;;;;;5.38;3.22;;;25.00;72.60;;;;;;5029574;28;20106;-73
2023/06/09 10:34:24;;;;;;;5.38;3.22;;;25.00;72.10;;;;;;5021659;28;20384;-73
2023/06/09 10:36:55;;;;;;;4.00;2.95;;;25.10;71.60;;;;;;5026544;28;20048;-73
2023/06/09 10:39:27;;;;;;;4.00;3.15;;;25.20;71.00;;;;;;5022756;28;20076;-74
2023/06/09 10:41:59;;;;;;;3.90;3.08;;;25.30;70.30;;;;;;5024081;28;20028;-74
2023/06/09 10:44:39;;;;;;;5.32;2.97;;;25.40;70.50;;;;;;5023951;28;20498;-74
2023/06/09 10:47:05;;;;;;;3.25;2.58;;;25.40;70.40;;;;;;5025796;28;20037;-74
2023/06/09 10:49:36;;;;;;;3.83;3.17;;;25.50;70.50;;;;;;5021488;28;20560;-73
2023/06/09 10:52:28;;;;;;;4.00;3.10;;;25.50;69.70;;;;;;5024261;28;20018;-73
2023/06/09 10:55:15;;;;;;;4.47;3.22;;;25.50;68.50;;;;;;5023843;28;20036;-73
2023/06/09 10:57:41;;;;;;;4.80;3.17;;;25.50;68.60;;;;;;5024025;28;20170;-73
2023/06/09 11:00:11;;;;;;;4.85;3.30;;;25.40;68.70;;;;;;5024224;28;20032;-73
2023/06/09 11:03:06;;;;;;;4.32;3.17;;;25.50;68.50;;;;;;5026844;28;20030;-74
2023/06/09 11:05:41;;;;;;;3.60;3.13;;;25.50;68.30;;;;;;4989997;28;20511;-74
2023/06/09 11:08:10;;;;;;;4.00;2.92;;;25.60;68.20;;;;;;5026773;28;20037;-73
2023/06/09 11:10:39;;;;;;;4.65;3.40;;;25.50;67.00;;;;;;5029798;28;20025;-75
2023/06/09 11:13:36;;;;;;;4.10;3.47;;;25.50;67.20;;;;;;5030100;28;20052;-74
2023/06/09 11:16:02;;;;;;;3.33;2.88;;;25.60;66.80;;;;;;5032681;28;20048;-74
2023/06/09 11:18:29;;;;;;;4.30;3.25;;;25.60;65.90;;;;;;5030507;28;20025;-75
2023/06/09 11:21:07;;;;;;;6.50;3.33;;;25.60;65.80;;;;;;5031033;28;20128;-75
2023/06/09 11:23:33;;;;;;;5.53;3.10;;;25.70;65.90;;;;;;5028915;28;20053;-73
2023/06/09 11:25:59;;;;;;;3.70;2.50;;;25.70;65.60;;;;;;5027306;28;20045;-72
2023/06/09 11:28:25;;;;;;;5.55;3.33;;;25.80;65.30;;;;;;5022863;28;20034;-74
2023/06/09 11:31:03;;;;;;;3.10;2.80;;;25.80;65.80;;;;;;5025715;28;20021;-73
2023/06/09 11:33:49;;;;;;;6.85;2.85;;;25.80;65.70;;;;;;5019740;28;20088;-73
2023/06/09 11:36:22;;;;;;;5.57;3.00;;;25.80;66.90;;;;;;5018002;28;20034;-75
2023/06/09 11:38:48;;;;;;;;;;;25.70;66.40;;;;;;5019461;28;20033;-73
2023/06/09 11:41:19;;;;;;;3.83;2.80;;;25.70;67.10;;;;;;5025920;28;20005;-74
2023/06/09 11:43:59;;;;;;;4.43;3.35;;;25.80;65.50;;;;;;5032141;28;20043;-75
2023/06/09 11:46:25;;;;;;;3.67;3.03;;;25.70;64.70;;;;;;5041023;28;20116;-77
2023/06/09 11:49:02;;;;;;;3.30;3.00;;;25.70;66.00;;;;;;5029282;28;20544;-77
2023/06/09 11:51:28;;;;;;;4.90;3.67;;;25.60;65.90;;;;;;5026935;28;20029;-74
2023/06/09 11:53:54;;;;;;;8.35;5.50;;;25.60;66.20;;;;;;5027362;28;20025;-75
2023/06/09 11:56:21;;;;;;;4.75;3.75;;;25.50;66.30;;;;;;5025382;28;20097;-75
2023/06/09 11:58:47;;;;;;;7.15;4.15;;;25.40;66.40;;;;;;5025320;28;20395;-75
2023/06/09 12:01:13;;;;;;;4.38;3.40;;;25.40;66.10;;;;;;5025858;28;20036;-76
2023/06/09 12:03:38;;;;;;;6.93;3.05;;;25.30;66.10;;;;;;5027211;28;20031;-74
2023/06/09 12:06:04;;;;;;;4.30;2.38;;;25.20;66.10;;;;;;5023488;28;20029;-75
2023/06/09 12:08:30;;;;;;;3.72;2.60;;;25.20;66.20;;;;;;5031234;28;20029;-74
2023/06/09 12:10:56;;;;;;;3.50;3.20;;;25.20;66.10;;;;;;5026456;28;20492;-75
2023/06/09 12:13:22;;;;;;;5.63;3.22;;;25.20;66.20;;;;;;5025998;28;20083;-74
2023/06/09 12:15:52;;;;;;;3.38;3.03;;;25.10;66.40;;;;;;5026161;28;20033;-75
2023/06/09 12:18:18;;;;;;;3.45;2.85;;;25.10;66.60;;;;;;5024691;28;20103;-73
2023/06/09 12:20:46;;;;;;;3.05;2.45;;;25.00;66.60;;;;;;5031853;28;20029;-74
2023/06/09 12:23:14;;;;;;;3.97;2.60;;;25.00;66.80;;;;;;5033455;28;20057;-72
2023/06/09 12:25:42;;;;;;;3.67;2.90;;;25.10;66.50;;;;;;5030760;28;20124;-74
2023/06/09 12:28:17;;;;;;;3.88;2.67;;;25.10;66.30;;;;;;5029238;28;20803;-76
2023/06/09 12:30:47;;;;;;;3.65;2.63;;;25.10;65.70;;;;;;5028432;28;20440;-74
2023/06/09 12:33:17;;;;;;;2.88;2.58;;;25.10;65.70;;;;;;5030156;28;20071;-74
2023/06/09 12:35:47;;;;;;;3.92;2.95;;;25.00;65.30;;;;;;5025078;28;20022;-75
2023/06/09 12:38:23;;;;;;;4.43;2.75;;;25.10;65.30;;;;;;5032970;28;20037;-74
2023/06/09 12:40:54;;;;;;;3.35;2.70;;;25.10;64.40;;;;;;5028815;28;20749;-74
2023/06/09 12:43:25;;;;;;;4.53;3.00;;;25.20;64.90;;;;;;5029638;28;20036;-73
2023/06/09 12:45:58;;;;;;;3.47;2.97;;;25.30;64.60;;;;;;5031779;28;20388;-74
2023/06/09 12:48:25;;;;;;;4.05;2.78;;;25.30;63.60;;;;;;5033616;28;20382;-73